createdAt,value
2022-08-18T00:00:31.216Z,40.30
2022-08-18T00:03:54.101Z,40.40
2022-08-18T00:06:32.209Z,40.60
2022-08-18T00:09:21.632Z,40.60
2022-08-18T00:12:18.390Z,40.70
2022-08-18T00:15:13.603Z,40.90
2022-08-18T00:18:03.091Z,40.90
2022-08-18T00:20:52.512Z,41.50
2022-08-18T00:23:43.426Z,40.90
2022-08-18T00:26:36.800Z,41.10
2022-08-18T00:29:26.931Z,41.10
2022-08-18T00:32:18.085Z,41.10
2022-08-18T00:35:10.193Z,41.10
2022-08-18T00:38:02.782Z,41.30
2022-08-18T00:40:56.573Z,41.30
2022-08-18T00:43:49.544Z,41.40
2022-08-18T00:46:39.565Z,41.30
2022-08-18T00:49:29.001Z,41.40
2022-08-18T00:52:18.992Z,41.40
2022-08-18T00:55:09.457Z,41.40
2022-08-18T00:58:06.622Z,41.40
2022-08-18T01:00:56.213Z,41.50
2022-08-18T01:03:53.048Z,41.40
2022-08-18T01:06:49.613Z,41.60
2022-08-18T01:09:39.114Z,41.70
2022-08-18T01:12:45.740Z,41.60
2022-08-18T01:15:38.415Z,41.70
2022-08-18T01:18:45.083Z,41.80
2022-08-18T01:21:54.074Z,41.80
2022-08-18T01:25:02.788Z,41.90
2022-08-18T01:27:54.232Z,41.80
2022-08-18T01:30:49.667Z,41.90
2022-08-18T01:33:42.931Z,42.20
2022-08-18T01:36:32.761Z,42.10
2022-08-18T01:41:25.256Z,42.10
2022-08-18T01:42:35.234Z,42.20
2022-08-18T01:45:24.893Z,42.20
2022-08-18T01:48:14.709Z,42.20
2022-08-18T01:51:06.511Z,42.20
2022-08-18T01:53:56.168Z,42.40
2022-08-18T01:56:45.594Z,42.40
2022-08-18T01:59:36.453Z,42.50
2022-08-18T02:02:29.669Z,42.60
2022-08-18T02:05:32.467Z,42.70
2022-08-18T02:08:22.198Z,42.70
2022-08-18T02:11:17.814Z,42.70
2022-08-18T02:14:07.294Z,42.80
2022-08-18T02:17:02.176Z,42.90
2022-08-18T02:19:52.058Z,43.00
2022-08-18T02:22:42.272Z,43.10
2022-08-18T02:25:31.678Z,43.20
2022-08-18T02:28:21.185Z,43.20
2022-08-18T02:31:14.320Z,43.30
2022-08-18T02:34:05.136Z,43.40
2022-08-18T02:36:54.886Z,43.50
2022-08-18T02:39:44.590Z,43.50
2022-08-18T02:42:38.554Z,43.60
2022-08-18T02:45:27.964Z,43.60
2022-08-18T02:48:18.292Z,43.60
2022-08-18T02:51:12.314Z,43.60
2022-08-18T02:54:01.714Z,43.70
2022-08-18T02:56:52.436Z,43.60
2022-08-18T02:59:42.654Z,43.70
2022-08-18T03:02:37.010Z,43.70
2022-08-18T03:05:30.162Z,43.70
2022-08-18T03:08:20.910Z,43.80
2022-08-18T03:11:11.054Z,44.00
2022-08-18T03:14:01.328Z,44.00
2022-08-18T03:16:53.679Z,43.90
2022-08-18T03:19:45.038Z,44.00
2022-08-18T03:22:38.865Z,44.00
2022-08-18T03:25:30.835Z,44.10
2022-08-18T03:28:20.866Z,44.10
2022-08-18T03:31:11.752Z,44.20
2022-08-18T03:34:01.890Z,44.10
2022-08-18T03:36:52.494Z,44.20
2022-08-18T03:39:42.710Z,44.30
2022-08-18T03:42:33.969Z,44.30
2022-08-18T03:45:24.384Z,44.40
2022-08-18T03:48:13.941Z,44.40
2022-08-18T03:51:06.823Z,44.50
2022-08-18T03:54:00.373Z,44.70
2022-08-18T03:56:50.464Z,44.60
2022-08-18T03:59:43.682Z,44.70
2022-08-18T04:02:33.172Z,44.70
2022-08-18T04:05:22.597Z,44.80
2022-08-18T04:08:13.501Z,45.00
2022-08-18T04:11:02.929Z,45.00
2022-08-18T04:13:52.561Z,45.10
2022-08-18T04:16:43.593Z,45.20
2022-08-18T04:19:34.614Z,45.40
2022-08-18T04:22:25.373Z,45.40
2022-08-18T04:25:14.857Z,45.50
2022-08-18T04:28:04.323Z,45.60
2022-08-18T04:30:54.620Z,45.60
2022-08-18T04:33:45.400Z,45.70
2022-08-18T04:36:37.101Z,45.90
2022-08-18T04:39:26.914Z,46.00
2022-08-18T04:42:17.086Z,46.00
2022-08-18T04:45:08.250Z,46.00
2022-08-18T04:47:58.178Z,46.10
2022-08-18T04:50:49.248Z,46.20
2022-08-18T04:53:47.210Z,46.30
2022-08-18T04:56:39.595Z,46.50
2022-08-18T04:59:29.075Z,46.80
2022-08-18T05:02:20.435Z,46.90
2022-08-18T05:05:11.193Z,47.10
2022-08-18T05:08:02.058Z,47.20
2022-08-18T05:10:59.084Z,47.30
2022-08-18T05:13:52.845Z,47.40
2022-08-18T05:16:48.911Z,47.50
2022-08-18T05:19:44.088Z,48.00
2022-08-18T05:22:39.224Z,48.50
2022-08-18T05:25:30.482Z,48.80
2022-08-18T05:28:19.890Z,48.70
2022-08-18T05:31:13.904Z,49.00
2022-08-18T05:34:04.166Z,49.30
2022-08-18T05:37:05.367Z,49.10
2022-08-18T05:40:00.305Z,48.30
2022-08-18T05:42:51.404Z,47.40
2022-08-18T05:45:42.203Z,46.70
2022-08-18T05:48:31.607Z,46.00
2022-08-18T05:51:29.474Z,45.50
2022-08-18T05:54:39.713Z,45.30
2022-08-18T05:57:37.356Z,45.00
2022-08-18T06:00:29.983Z,44.90
2022-08-18T06:03:25.199Z,45.40
2022-08-18T06:06:23.975Z,44.80
2022-08-18T06:09:20.513Z,44.80
2022-08-18T06:12:38.179Z,44.80
2022-08-18T06:15:43.821Z,44.70
2022-08-18T06:18:47.009Z,44.70
2022-08-18T06:21:45.693Z,44.80
2022-08-18T06:24:43.114Z,44.80
2022-08-18T06:27:42.467Z,44.90
2022-08-18T06:30:49.470Z,45.10
2022-08-18T06:33:51.541Z,45.30
2022-08-18T06:36:52.860Z,45.50
2022-08-18T06:39:48.479Z,45.70
2022-08-18T06:42:40.608Z,45.90
2022-08-18T06:45:39.974Z,46.00
2022-08-18T06:48:39.170Z,45.90
2022-08-18T06:51:29.946Z,45.70
2022-08-18T06:54:31.537Z,45.40
2022-08-18T06:57:32.915Z,45.10
2022-08-18T07:00:31.432Z,44.80
2022-08-18T07:03:40.866Z,44.60
2022-08-18T07:06:32.819Z,44.80
2022-08-18T07:09:27.822Z,45.50
2022-08-18T07:12:32.558Z,45.90
2022-08-18T07:15:26.157Z,45.70
2022-08-18T07:18:18.703Z,45.80
2022-08-18T07:21:09.639Z,46.00
2022-08-18T07:24:24.435Z,45.70
2022-08-18T07:27:18.160Z,45.00
2022-08-18T07:30:15.331Z,44.60
2022-08-18T07:33:21.273Z,44.60
2022-08-18T07:36:14.104Z,44.40
2022-08-18T07:39:12.017Z,43.90
2022-08-18T07:42:11.245Z,42.80
2022-08-18T07:45:07.205Z,41.90
2022-08-18T07:48:10.862Z,41.30
2022-08-18T07:51:24.412Z,40.70
2022-08-18T07:54:48.780Z,39.80
2022-08-18T07:57:49.263Z,39.30
2022-08-18T08:00:58.758Z,39.00
2022-08-18T08:03:57.939Z,39.10
2022-08-18T08:07:22.883Z,39.10
2022-08-18T08:10:31.274Z,39.90
2022-08-18T08:13:51.790Z,40.60
2022-08-18T08:16:46.557Z,41.80
2022-08-18T08:20:00.878Z,41.20
2022-08-18T08:23:17.747Z,40.10
2022-08-18T08:26:38.196Z,39.30
2022-08-18T08:29:42.398Z,39.40
2022-08-18T08:32:36.787Z,39.40
2022-08-18T08:35:47.303Z,38.70
2022-08-18T08:38:46.502Z,37.50
2022-08-18T08:41:41.979Z,37.20
2022-08-18T08:44:48.953Z,37.00
2022-08-18T08:48:06.608Z,36.60
2022-08-18T08:51:02.711Z,36.30
2022-08-18T08:54:00.584Z,36.50
2022-08-18T08:56:54.794Z,36.40
2022-08-18T08:59:47.799Z,36.60
2022-08-18T09:03:02.425Z,36.50
2022-08-18T09:06:06.631Z,36.10
2022-08-18T09:09:27.594Z,36.10
2022-08-18T09:12:37.548Z,35.70
2022-08-18T09:16:02.126Z,35.60
2022-08-18T09:19:29.921Z,35.60
2022-08-18T09:22:33.006Z,35.50
2022-08-18T09:25:47.083Z,35.70
2022-08-18T09:28:58.078Z,35.90
2022-08-18T09:31:48.910Z,36.20
2022-08-18T09:34:55.214Z,36.50
2022-08-18T09:38:13.140Z,36.50
2022-08-18T09:41:33.250Z,36.50
2022-08-18T09:48:30.626Z,36.30
2022-08-18T09:54:54.262Z,36.70
2022-08-18T09:57:48.164Z,36.80
2022-08-18T10:00:38.375Z,36.80
2022-08-18T10:03:32.070Z,36.60
2022-08-18T10:09:38.016Z,36.00
2022-08-18T10:13:10.783Z,35.90
2022-08-18T10:16:14.454Z,36.00
2022-08-18T10:19:17.885Z,36.00
2022-08-18T10:22:11.011Z,36.00
2022-08-18T10:25:14.122Z,36.10
2022-08-18T10:28:34.580Z,36.10
2022-08-18T10:34:51.743Z,36.20
2022-08-18T10:37:49.053Z,36.30
2022-08-18T10:40:43.247Z,36.40
2022-08-18T10:43:55.219Z,36.30
2022-08-18T10:46:53.442Z,36.40
2022-08-18T10:49:46.793Z,36.40
2022-08-18T10:53:24.745Z,36.40
2022-08-18T10:56:31.451Z,36.60
2022-08-18T10:59:50.718Z,36.70
2022-08-18T11:03:30.082Z,36.70
2022-08-18T11:06:23.806Z,36.80
2022-08-18T11:09:13.991Z,36.90
2022-08-18T11:12:06.448Z,37.10
2022-08-18T11:15:22.481Z,37.30
2022-08-18T11:18:42.837Z,37.70
2022-08-18T11:21:41.624Z,37.90
2022-08-18T11:24:35.545Z,37.70
2022-08-18T11:27:31.251Z,38.00
2022-08-18T11:30:30.875Z,38.20
2022-08-18T11:33:24.685Z,38.50
2022-08-18T11:36:17.705Z,38.60
2022-08-18T11:39:11.243Z,38.80
2022-08-18T11:42:05.388Z,38.90
2022-08-18T11:44:56.978Z,38.90
2022-08-18T11:48:12.580Z,39.10
2022-08-18T11:51:11.387Z,39.40
2022-08-18T11:54:05.170Z,39.10
2022-08-18T11:56:54.771Z,39.20
2022-08-18T11:59:55.031Z,39.30
2022-08-18T12:02:50.336Z,39.50
2022-08-18T12:05:55.966Z,39.70
2022-08-18T12:08:57.393Z,40.10
2022-08-18T12:11:55.847Z,40.20
2022-08-18T12:15:10.424Z,40.40
2022-08-18T12:18:06.578Z,40.50
2022-08-18T12:20:58.725Z,40.20
2022-08-18T12:23:52.440Z,40.30
2022-08-18T12:26:43.372Z,40.20
2022-08-18T12:29:43.599Z,40.00
2022-08-18T12:32:49.864Z,40.10
2022-08-18T12:35:45.778Z,40.10
2022-08-18T12:38:37.463Z,40.20
2022-08-18T12:41:33.073Z,40.40
2022-08-18T12:44:23.326Z,40.40
2022-08-18T12:47:21.312Z,40.50
2022-08-18T12:50:12.431Z,40.60
2022-08-18T12:53:02.504Z,40.60
2022-08-18T12:55:53.573Z,40.60
2022-08-18T12:58:43.099Z,40.60
2022-08-18T13:01:34.159Z,40.50
2022-08-18T13:04:26.750Z,40.60
2022-08-18T13:07:16.980Z,40.70
2022-08-18T13:10:09.899Z,40.70
2022-08-18T13:13:22.038Z,40.80
2022-08-18T13:16:30.521Z,40.80
2022-08-18T13:19:20.875Z,40.60
2022-08-18T13:22:12.179Z,40.30
2022-08-18T13:25:03.806Z,40.20
2022-08-18T13:30:51.846Z,40.00
2022-08-18T13:33:56.156Z,40.00
2022-08-18T13:36:48.367Z,39.90
2022-08-18T13:39:38.611Z,40.60
2022-08-18T13:42:50.935Z,39.90
2022-08-18T13:45:44.396Z,40.00
2022-08-18T13:48:35.812Z,40.00
2022-08-18T13:51:26.219Z,40.10
2022-08-18T13:54:30.925Z,40.20
2022-08-18T13:57:21.522Z,40.40
2022-08-18T14:00:18.411Z,40.50
2022-08-18T14:03:30.718Z,40.70
2022-08-18T14:09:27.912Z,41.10
2022-08-18T14:12:32.625Z,41.00
2022-08-18T14:15:23.264Z,41.00
2022-08-18T14:18:16.254Z,41.10
2022-08-18T14:21:23.737Z,41.20
2022-08-18T14:24:31.749Z,41.20
2022-08-18T14:27:30.592Z,41.20
2022-08-18T14:30:25.203Z,41.20
2022-08-18T14:36:12.522Z,41.30
2022-08-18T14:39:03.958Z,41.30
2022-08-18T14:41:57.053Z,41.40
2022-08-18T14:44:46.875Z,41.50
2022-08-18T14:47:37.702Z,41.40
2022-08-18T14:50:27.908Z,41.40
2022-08-18T14:53:20.301Z,41.30
2022-08-18T14:56:12.262Z,41.30
2022-08-18T14:59:05.264Z,41.30
2022-08-18T15:01:55.964Z,41.30
2022-08-18T15:04:55.986Z,41.30
2022-08-18T15:07:46.130Z,41.30
2022-08-18T15:10:36.214Z,41.30
2022-08-18T15:13:26.678Z,41.40
2022-08-18T15:16:18.869Z,41.50
2022-08-18T15:19:59.193Z,41.50
2022-08-18T15:22:35.019Z,41.50
2022-08-18T15:25:44.972Z,41.50
2022-08-18T15:28:34.474Z,41.70
2022-08-18T15:34:46.872Z,41.80
2022-08-18T15:37:43.180Z,41.90
2022-08-18T15:40:35.825Z,42.10
2022-08-18T15:43:34.009Z,42.20
2022-08-18T15:46:25.083Z,42.30
2022-08-18T15:49:17.306Z,42.40
2022-08-18T15:52:11.921Z,42.50
2022-08-18T15:55:03.254Z,42.60
2022-08-18T15:57:56.802Z,42.70
2022-08-18T16:00:49.152Z,42.70
2022-08-18T16:03:42.067Z,42.80
2022-08-18T16:06:41.686Z,42.80
2022-08-18T16:09:31.282Z,42.90
2022-08-18T16:12:20.782Z,43.00
2022-08-18T16:15:14.615Z,43.00
2022-08-18T16:18:10.876Z,43.10
2022-08-18T16:21:08.088Z,43.20
2022-08-18T16:23:57.591Z,43.30
2022-08-18T16:26:47.100Z,43.20
2022-08-18T16:29:36.620Z,43.20
2022-08-18T16:32:26.293Z,43.10
2022-08-18T16:35:17.257Z,43.10
2022-08-18T16:38:09.785Z,43.00
2022-08-18T16:41:00.014Z,43.10
2022-08-18T16:43:50.332Z,43.00
2022-08-18T16:46:39.812Z,43.00
2022-08-18T16:49:30.015Z,43.10
2022-08-18T16:52:20.371Z,43.20
2022-08-18T16:55:13.927Z,43.20
2022-08-18T16:58:21.126Z,43.30
2022-08-18T17:01:48.506Z,43.20
2022-08-18T17:04:39.086Z,43.20
2022-08-18T17:07:28.616Z,43.10
2022-08-18T17:10:19.694Z,43.20
2022-08-18T17:13:12.574Z,43.30
2022-08-18T17:16:02.641Z,43.40
2022-08-18T17:18:54.045Z,43.40
2022-08-18T17:21:43.707Z,43.40
2022-08-18T17:24:33.352Z,43.50
2022-08-18T17:27:37.721Z,43.60
2022-08-18T17:30:33.108Z,43.90
2022-08-18T17:33:28.125Z,44.00
2022-08-18T17:36:23.932Z,44.00
2022-08-18T17:39:17.018Z,44.20
2022-08-18T17:42:24.745Z,44.20
2022-08-18T17:45:21.492Z,44.30
2022-08-18T17:48:17.949Z,44.40
2022-08-18T17:51:31.418Z,44.60
2022-08-18T17:54:32.473Z,44.60
2022-08-18T17:57:28.378Z,44.80
2022-08-18T18:00:23.578Z,44.80
2022-08-18T18:03:13.537Z,44.90
2022-08-18T18:06:11.610Z,44.90
2022-08-18T18:09:06.232Z,45.30
2022-08-18T18:11:56.153Z,45.20
2022-08-18T18:14:45.817Z,45.70
2022-08-18T18:17:39.645Z,46.60
2022-08-18T18:20:38.513Z,47.30
2022-08-18T18:23:34.698Z,48.00
2022-08-18T18:26:29.930Z,47.80
2022-08-18T18:29:29.239Z,47.80
2022-08-18T18:32:28.929Z,48.10
2022-08-18T18:35:27.568Z,48.60
2022-08-18T18:38:27.895Z,48.50
2022-08-18T18:41:28.932Z,49.20
2022-08-18T18:44:27.333Z,48.90
2022-08-18T18:47:40.212Z,48.70
2022-08-18T18:50:55.567Z,49.40
2022-08-18T18:53:55.886Z,49.80
2022-08-18T18:56:53.081Z,50.10
2022-08-18T18:59:58.229Z,50.30
2022-08-18T19:03:01.348Z,50.40
2022-08-18T19:06:09.200Z,51.20
2022-08-18T19:09:15.331Z,50.70
2022-08-18T19:12:20.104Z,50.90
2022-08-18T19:15:15.254Z,51.30
2022-08-18T19:18:17.887Z,51.20
2022-08-18T19:22:04.913Z,51.40
2022-08-18T19:24:27.647Z,51.80
2022-08-18T19:27:29.711Z,51.60
2022-08-18T19:30:22.566Z,52.70
2022-08-18T19:33:25.905Z,52.40
2022-08-18T19:36:35.230Z,53.20
2022-08-18T19:39:34.415Z,53.70
2022-08-18T19:42:35.297Z,53.40
2022-08-18T19:45:32.843Z,53.90
2022-08-18T19:48:29.895Z,53.90
2022-08-18T19:51:30.194Z,54.10
2022-08-18T19:54:50.840Z,54.20
2022-08-18T19:58:20.081Z,54.70
2022-08-18T20:01:21.194Z,55.10
2022-08-18T20:04:32.598Z,54.40
2022-08-18T20:08:19.740Z,54.90
2022-08-18T20:11:42.211Z,55.00
2022-08-18T20:14:36.091Z,55.00
2022-08-18T20:17:26.982Z,54.70
2022-08-18T20:20:19.388Z,54.90
2022-08-18T20:23:34.115Z,55.20
2022-08-18T20:26:46.201Z,56.00
2022-08-18T20:29:44.591Z,56.00
2022-08-18T20:32:36.250Z,55.60
2022-08-18T20:35:31.731Z,55.40
2022-08-18T20:38:35.175Z,55.60
2022-08-18T20:41:44.289Z,56.00
2022-08-18T20:44:58.446Z,56.30
2022-08-18T20:48:12.551Z,56.50
2022-08-18T20:51:12.045Z,56.50
2022-08-18T20:54:13.276Z,56.40
2022-08-18T20:57:06.103Z,56.40
2022-08-18T21:00:05.849Z,56.30
2022-08-18T21:02:58.360Z,56.60
2022-08-18T21:05:50.977Z,56.40
2022-08-18T21:08:50.972Z,56.50
2022-08-18T21:11:46.192Z,56.80
2022-08-18T21:14:35.773Z,56.80
2022-08-18T21:17:27.673Z,56.60
2022-08-18T21:20:17.813Z,56.80
2022-08-18T21:23:12.871Z,56.90
2022-08-18T21:26:09.849Z,57.10
2022-08-18T21:29:08.949Z,57.50
2022-08-18T21:32:12.073Z,57.70
2022-08-18T21:35:10.548Z,57.90
2022-08-18T21:38:05.978Z,57.50
2022-08-18T21:41:00.543Z,57.70
2022-08-18T21:43:53.040Z,57.90
2022-08-18T21:46:46.086Z,57.90
2022-08-18T21:49:35.619Z,58.10
2022-08-18T21:52:26.905Z,58.10
2022-08-18T21:55:27.687Z,58.30
2022-08-18T21:58:32.613Z,58.60
2022-08-18T22:01:28.300Z,58.60
2022-08-18T22:04:28.870Z,58.50
2022-08-18T22:07:35.087Z,58.90
2022-08-18T22:10:47.342Z,58.60
2022-08-18T22:14:00.344Z,58.80
2022-08-18T22:16:52.892Z,59.30
2022-08-18T22:19:43.754Z,58.80
2022-08-18T22:22:53.839Z,59.10
2022-08-18T22:25:43.623Z,59.30
2022-08-18T22:28:33.793Z,59.20
2022-08-18T22:31:25.649Z,59.30
2022-08-18T22:34:28.296Z,59.40
2022-08-18T22:37:23.679Z,59.60
2022-08-18T22:40:15.817Z,59.90
2022-08-18T22:43:05.834Z,59.90
2022-08-18T22:45:55.312Z,59.90
2022-08-18T22:48:45.927Z,59.90
2022-08-18T22:51:36.848Z,60.10
2022-08-18T22:54:27.904Z,60.30
2022-08-18T22:57:17.662Z,60.50
2022-08-18T23:00:10.884Z,60.50
2022-08-18T23:03:00.756Z,60.60
2022-08-18T23:05:50.346Z,60.80
2022-08-18T23:08:55.516Z,60.90
2022-08-18T23:11:46.968Z,60.90
2022-08-18T23:14:37.008Z,60.90
2022-08-18T23:17:26.500Z,61.00
2022-08-18T23:20:19.427Z,61.20
2022-08-18T23:23:09.412Z,61.20
2022-08-18T23:25:59.904Z,61.20
2022-08-18T23:28:52.396Z,61.30
2022-08-18T23:31:45.218Z,61.60
2022-08-18T23:34:36.114Z,61.70
2022-08-18T23:37:25.583Z,61.90
2022-08-18T23:40:16.656Z,62.00
2022-08-18T23:43:07.902Z,61.80
2022-08-18T23:45:59.000Z,62.10
2022-08-18T23:48:50.304Z,62.40
2022-08-18T23:51:44.315Z,63.10
2022-08-18T23:54:36.090Z,62.60
2022-08-18T23:57:25.582Z,62.70
